createdAt,value
2019-03-06T00:00:29.684Z,5.13
2019-03-06T00:03:02.223Z,5.27
2019-03-06T00:05:34.206Z,4.73
2019-03-06T00:08:05.417Z,4.93
2019-03-06T00:10:36.598Z,4.67
2019-03-06T00:13:07.306Z,5.20
2019-03-06T00:15:38.726Z,5.33
2019-03-06T00:18:10.358Z,4.93
2019-03-06T00:20:41.736Z,4.87
2019-03-06T00:23:13.017Z,4.73
2019-03-06T00:25:43.935Z,5.40
2019-03-06T00:28:15.481Z,5.53
2019-03-06T00:30:46.295Z,5.63
2019-03-06T00:33:17.728Z,5.67
2019-03-06T00:35:50.519Z,5.50
2019-03-06T00:38:21.509Z,5.37
2019-03-06T00:40:53.833Z,5.17
2019-03-06T00:43:24.933Z,5.43
2019-03-06T00:45:55.705Z,6.30
2019-03-06T00:48:26.555Z,5.67
2019-03-06T00:50:57.320Z,6.40
2019-03-06T00:53:28.225Z,5.93
2019-03-06T00:55:59.089Z,5.60
2019-03-06T00:58:30.212Z,5.83
2019-03-06T01:01:01.081Z,9.93
2019-03-06T01:03:32.877Z,5.93
2019-03-06T01:06:03.886Z,5.50
2019-03-06T01:08:34.543Z,6.03
2019-03-06T01:11:05.882Z,5.30
2019-03-06T01:13:38.191Z,6.10
2019-03-06T01:16:09.354Z,5.63
2019-03-06T01:18:40.368Z,4.83
2019-03-06T01:21:11.857Z,4.90
2019-03-06T01:23:42.731Z,5.40
2019-03-06T01:26:13.596Z,5.00
2019-03-06T01:28:44.307Z,5.30
2019-03-06T01:31:15.092Z,5.23
2019-03-06T01:33:47.651Z,5.60
2019-03-06T01:36:20.302Z,6.17
2019-03-06T01:38:52.631Z,5.97
2019-03-06T01:41:25.067Z,5.03
2019-03-06T01:43:57.790Z,5.63
2019-03-06T01:46:28.777Z,6.13
2019-03-06T01:48:59.760Z,5.70
2019-03-06T01:51:30.669Z,5.47
2019-03-06T01:54:01.389Z,5.17
2019-03-06T01:56:31.990Z,8.27
2019-03-06T01:59:02.852Z,5.70
2019-03-06T02:01:34.106Z,6.00
2019-03-06T02:04:05.240Z,5.87
2019-03-06T02:06:36.329Z,5.60
2019-03-06T02:09:09.938Z,6.60
2019-03-06T02:11:41.014Z,5.73
2019-03-06T02:14:13.557Z,5.53
2019-03-06T02:16:45.090Z,5.73
2019-03-06T02:19:16.137Z,5.27
2019-03-06T02:21:47.161Z,5.70
2019-03-06T02:24:18.116Z,5.90
2019-03-06T02:26:48.953Z,6.20
2019-03-06T02:29:19.944Z,6.50
2019-03-06T02:31:51.161Z,5.37
2019-03-06T02:34:25.036Z,6.37
2019-03-06T02:36:56.034Z,5.80
2019-03-06T02:39:28.127Z,5.87
2019-03-06T02:41:59.089Z,6.37
2019-03-06T02:44:30.337Z,5.40
2019-03-06T02:47:01.936Z,6.13
2019-03-06T02:49:32.850Z,5.60
2019-03-06T02:52:03.672Z,6.40
2019-03-06T02:54:34.501Z,6.37
2019-03-06T02:57:05.866Z,5.87
2019-03-06T02:59:39.419Z,5.80
2019-03-06T03:02:12.187Z,7.13
2019-03-06T03:04:44.919Z,6.50
2019-03-06T03:07:15.999Z,6.77
2019-03-06T03:09:46.949Z,6.03
2019-03-06T03:12:19.697Z,6.70
2019-03-06T03:14:50.777Z,6.90
2019-03-06T03:17:21.772Z,7.03
2019-03-06T03:19:53.205Z,7.33
2019-03-06T03:22:24.493Z,6.40
2019-03-06T03:24:55.551Z,7.10
2019-03-06T03:27:26.313Z,8.90
2019-03-06T03:29:57.628Z,7.00
2019-03-06T03:32:28.857Z,7.13
2019-03-06T03:34:59.575Z,7.30
2019-03-06T03:37:30.794Z,7.57
2019-03-06T03:40:01.794Z,7.13
2019-03-06T03:42:34.051Z,6.87
2019-03-06T03:45:07.914Z,7.77
2019-03-06T03:47:38.475Z,8.53
2019-03-06T03:50:10.457Z,7.43
2019-03-06T03:52:41.696Z,7.87
2019-03-06T03:55:14.819Z,7.73
2019-03-06T03:57:46.076Z,7.70
2019-03-06T04:00:19.396Z,7.17
2019-03-06T04:02:50.733Z,7.33
2019-03-06T04:05:22.011Z,8.10
2019-03-06T04:07:53.139Z,8.07
2019-03-06T04:10:24.116Z,7.60
2019-03-06T04:12:54.870Z,9.10
2019-03-06T04:15:26.301Z,7.43
2019-03-06T04:17:57.324Z,8.20
2019-03-06T04:20:28.079Z,7.27
2019-03-06T04:22:58.991Z,7.03
2019-03-06T04:25:30.106Z,7.37
2019-03-06T04:28:01.285Z,7.07
2019-03-06T04:30:32.040Z,8.63
2019-03-06T04:33:02.928Z,8.40
2019-03-06T04:35:34.301Z,7.93
2019-03-06T04:38:05.297Z,8.57
2019-03-06T04:40:36.207Z,8.13
2019-03-06T04:43:08.218Z,7.17
2019-03-06T04:45:43.451Z,8.20
2019-03-06T04:48:14.637Z,8.90
2019-03-06T04:50:45.761Z,10.40
2019-03-06T04:53:16.612Z,12.43
2019-03-06T04:55:47.338Z,22.70
2019-03-06T04:58:18.232Z,19.40
2019-03-06T05:00:49.412Z,15.60
2019-03-06T05:03:20.288Z,14.00
2019-03-06T05:05:51.551Z,16.10
2019-03-06T05:08:22.265Z,13.47
2019-03-06T05:10:52.913Z,11.10
2019-03-06T05:13:25.361Z,20.10
2019-03-06T05:15:56.181Z,16.10
2019-03-06T05:18:28.606Z,16.33
2019-03-06T05:20:59.936Z,13.67
2019-03-06T05:23:30.952Z,12.80
2019-03-06T05:26:01.912Z,13.73
2019-03-06T05:28:34.089Z,12.67
2019-03-06T05:31:05.940Z,10.33
2019-03-06T05:33:37.189Z,13.13
2019-03-06T05:36:09.205Z,12.70
2019-03-06T05:38:43.539Z,12.87
2019-03-06T05:41:14.516Z,14.63
2019-03-06T05:43:45.406Z,17.37
2019-03-06T05:46:16.936Z,14.57
2019-03-06T05:48:48.330Z,13.07
2019-03-06T05:51:19.561Z,16.10
2019-03-06T05:53:50.716Z,13.60
2019-03-06T05:56:21.698Z,12.53
2019-03-06T05:58:53.182Z,12.47
2019-03-06T06:01:23.981Z,11.97
2019-03-06T06:03:55.014Z,12.40
2019-03-06T06:06:26.959Z,12.23
2019-03-06T06:08:57.940Z,12.23
2019-03-06T06:11:29.159Z,10.47
2019-03-06T06:14:00.543Z,12.50
2019-03-06T06:16:31.854Z,10.70
2019-03-06T06:19:03.155Z,11.43
2019-03-06T06:21:35.874Z,10.13
2019-03-06T06:24:08.254Z,11.77
2019-03-06T06:26:39.203Z,11.67
2019-03-06T06:29:10.218Z,11.27
2019-03-06T06:31:41.300Z,11.10
2019-03-06T06:34:13.792Z,14.47
2019-03-06T06:36:46.333Z,12.17
2019-03-06T06:39:17.575Z,11.53
2019-03-06T06:41:48.392Z,10.10
2019-03-06T06:44:20.463Z,10.57
2019-03-06T06:46:51.517Z,10.97
2019-03-06T06:49:22.487Z,10.80
2019-03-06T06:51:56.453Z,11.60
2019-03-06T06:54:31.289Z,10.27
2019-03-06T06:57:05.995Z,11.83
2019-03-06T06:59:41.230Z,11.40
2019-03-06T07:02:16.323Z,14.53
2019-03-06T07:04:50.135Z,12.27
2019-03-06T07:07:22.835Z,10.47
2019-03-06T07:09:55.508Z,12.67
2019-03-06T07:12:28.925Z,11.37
2019-03-06T07:15:01.424Z,11.97
2019-03-06T07:17:33.958Z,12.00
2019-03-06T07:20:07.163Z,10.30
2019-03-06T07:22:39.745Z,9.63
2019-03-06T07:25:12.275Z,9.23
2019-03-06T07:27:44.771Z,10.50
2019-03-06T07:30:17.456Z,9.67
2019-03-06T07:32:50.122Z,9.33
2019-03-06T07:35:26.392Z,10.97
2019-03-06T07:37:59.588Z,9.60
2019-03-06T07:40:32.554Z,8.50
2019-03-06T07:43:04.994Z,9.57
2019-03-06T07:45:38.680Z,9.17
2019-03-06T07:48:12.035Z,8.87
2019-03-06T07:50:45.079Z,9.70
2019-03-06T07:53:21.031Z,9.37
2019-03-06T07:55:53.417Z,10.60
2019-03-06T07:58:27.866Z,9.20
2019-03-06T08:12:23.047Z,9.80
2019-03-06T08:14:54.000Z,9.60
2019-03-06T08:17:26.498Z,8.77
2019-03-06T08:19:59.449Z,10.63
2019-03-06T08:22:32.495Z,34.97
2019-03-06T08:25:05.945Z,10.57
2019-03-06T08:27:37.339Z,10.37
2019-03-06T08:30:10.497Z,10.77
2019-03-06T08:32:42.015Z,10.43
2019-03-06T08:35:13.218Z,9.90
2019-03-06T08:37:44.906Z,10.20
2019-03-06T08:40:16.167Z,10.20
2019-03-06T08:42:47.366Z,9.83
2019-03-06T08:45:20.330Z,11.57
2019-03-06T08:47:53.053Z,9.20
2019-03-06T08:50:25.771Z,9.97
2019-03-06T08:52:58.849Z,10.47
2019-03-06T08:55:31.330Z,11.70
2019-03-06T08:58:03.770Z,11.27
2019-03-06T09:00:36.374Z,11.00
2019-03-06T09:03:08.932Z,12.00
2019-03-06T09:05:41.407Z,10.30
2019-03-06T09:08:14.482Z,10.53
2019-03-06T09:10:46.963Z,11.17
2019-03-06T09:13:20.986Z,10.63
2019-03-06T09:15:54.746Z,10.97
2019-03-06T09:18:28.368Z,12.30
2019-03-06T09:21:01.693Z,11.80
2019-03-06T09:23:38.152Z,11.53
2019-03-06T09:26:10.864Z,13.13
2019-03-06T09:28:43.797Z,12.17
2019-03-06T09:31:16.165Z,12.00
2019-03-06T09:33:48.698Z,12.40
2019-03-06T09:36:21.095Z,11.73
2019-03-06T09:38:54.775Z,11.57
2019-03-06T09:41:27.969Z,12.67
2019-03-06T09:44:00.560Z,12.60
2019-03-06T09:46:33.095Z,14.07
2019-03-06T09:49:11.607Z,12.37
2019-03-06T09:51:40.536Z,12.95
2019-03-06T09:54:13.604Z,13.80
2019-03-06T09:56:49.131Z,13.90
2019-03-06T09:59:21.736Z,13.83
2019-03-06T10:02:06.286Z,14.65
2019-03-06T10:04:31.607Z,13.95
2019-03-06T10:07:04.015Z,14.50
2019-03-06T10:09:36.963Z,14.30
2019-03-06T10:12:09.639Z,14.15
2019-03-06T10:14:42.240Z,15.57
2019-03-06T10:17:13.997Z,15.32
2019-03-06T10:19:46.806Z,15.30
2019-03-06T10:22:17.915Z,15.03
2019-03-06T10:24:49.470Z,16.05
2019-03-06T10:27:20.802Z,15.93
2019-03-06T10:29:52.531Z,16.77
2019-03-06T10:32:23.760Z,17.98
2019-03-06T10:34:55.217Z,19.35
2019-03-06T10:37:26.653Z,19.07
2019-03-06T10:39:57.916Z,18.80
2019-03-06T10:42:29.115Z,18.05
2019-03-06T10:45:00.502Z,16.60
2019-03-06T10:47:31.291Z,13.90
2019-03-06T10:50:02.239Z,14.60
2019-03-06T10:52:33.120Z,16.45
2019-03-06T10:55:07.359Z,15.63
2019-03-06T10:57:39.054Z,16.12
2019-03-06T11:00:14.467Z,13.83
2019-03-06T11:02:45.445Z,15.18
2019-03-06T11:05:21.054Z,14.70
2019-03-06T11:07:52.404Z,13.32
2019-03-06T11:10:25.296Z,13.32
2019-03-06T11:12:56.460Z,13.72
2019-03-06T11:15:28.815Z,12.68
2019-03-06T11:18:00.583Z,13.43
2019-03-06T11:20:33.842Z,11.97
2019-03-06T11:23:08.221Z,13.62
2019-03-06T11:25:40.227Z,12.23
2019-03-06T11:28:12.840Z,12.47
2019-03-06T11:30:48.165Z,12.73
2019-03-06T11:33:20.978Z,12.53
2019-03-06T11:35:54.280Z,12.58
2019-03-06T11:38:25.657Z,13.20
2019-03-06T11:40:57.652Z,11.43
2019-03-06T11:43:28.806Z,12.98
2019-03-06T11:46:00.631Z,12.18
2019-03-06T11:48:32.099Z,10.75
2019-03-06T11:51:03.318Z,11.15
2019-03-06T11:53:34.755Z,10.20
2019-03-06T11:56:06.078Z,11.93
2019-03-06T11:58:36.935Z,11.93
2019-03-06T12:01:11.379Z,12.07
2019-03-06T12:03:42.723Z,11.60
2019-03-06T12:06:16.602Z,11.57
2019-03-06T12:08:51.014Z,11.80
2019-03-06T12:11:22.409Z,13.00
2019-03-06T12:13:53.455Z,12.13
2019-03-06T12:16:24.656Z,11.97
2019-03-06T12:18:56.014Z,13.95
2019-03-06T12:21:27.159Z,13.43
2019-03-06T12:23:58.601Z,13.80
2019-03-06T12:26:30.645Z,13.53
2019-03-06T12:29:01.833Z,12.18
2019-03-06T12:31:32.573Z,13.68
2019-03-06T12:34:03.397Z,11.90
2019-03-06T12:36:36.126Z,12.23
2019-03-06T12:39:07.104Z,11.40
2019-03-06T12:41:40.250Z,11.93
2019-03-06T12:44:11.084Z,11.85
2019-03-06T12:46:43.194Z,24.02
2019-03-06T12:49:14.858Z,38.20
2019-03-06T12:51:54.001Z,12.23
2019-03-06T12:54:18.661Z,9.50
2019-03-06T12:56:50.018Z,11.85
2019-03-06T12:59:21.501Z,10.80
2019-03-06T13:01:53.374Z,10.63
2019-03-06T13:04:30.133Z,10.55
2019-03-06T13:07:03.290Z,10.50
2019-03-06T13:09:34.643Z,10.00
2019-03-06T13:12:07.242Z,11.05
2019-03-06T13:14:39.505Z,10.70
2019-03-06T13:17:10.707Z,9.23
2019-03-06T13:19:41.860Z,11.10
2019-03-06T13:22:12.818Z,10.93
2019-03-06T13:24:44.447Z,9.63
2019-03-06T13:27:16.306Z,9.45
2019-03-06T13:29:47.865Z,9.18
2019-03-06T13:32:19.667Z,9.95
2019-03-06T13:34:52.250Z,9.05
2019-03-06T13:37:23.714Z,10.32
2019-03-06T13:39:55.368Z,10.18
2019-03-06T13:42:27.309Z,11.28
2019-03-06T13:44:59.108Z,10.40
2019-03-06T13:47:30.975Z,10.25
2019-03-06T13:50:03.711Z,9.88
2019-03-06T13:52:41.192Z,11.88
2019-03-06T13:55:23.281Z,11.83
2019-03-06T13:57:56.609Z,11.20
2019-03-06T14:00:27.635Z,13.22
2019-03-06T14:02:58.386Z,11.15
2019-03-06T14:05:28.878Z,13.78
2019-03-06T14:07:59.706Z,17.48
2019-03-06T14:10:30.854Z,12.60
2019-03-06T14:13:03.506Z,11.33
2019-03-06T14:15:35.472Z,11.70
2019-03-06T14:18:07.421Z,10.55
2019-03-06T14:20:38.509Z,10.43
2019-03-06T14:23:09.147Z,15.50
2019-03-06T14:25:41.026Z,17.90
2019-03-06T14:28:12.747Z,10.82
2019-03-06T14:30:44.667Z,10.05
2019-03-06T14:33:16.254Z,10.23
2019-03-06T14:35:47.389Z,9.68
2019-03-06T14:38:18.504Z,11.22
2019-03-06T14:40:51.509Z,10.50
2019-03-06T14:43:27.101Z,10.28
2019-03-06T14:45:58.822Z,10.98
2019-03-06T14:48:31.469Z,12.03
2019-03-06T14:51:02.101Z,10.95
2019-03-06T14:53:32.782Z,11.88
2019-03-06T14:56:03.460Z,13.38
2019-03-06T14:58:34.387Z,12.63
2019-03-06T15:01:05.703Z,12.10
2019-03-06T15:03:37.622Z,13.28
2019-03-06T15:06:08.581Z,16.48
2019-03-06T15:08:39.343Z,19.67
2019-03-06T15:11:09.940Z,10.82
2019-03-06T15:13:40.683Z,16.48
2019-03-06T15:16:11.694Z,13.10
2019-03-06T15:18:42.218Z,14.95
2019-03-06T15:21:12.987Z,11.70
2019-03-06T15:23:45.444Z,11.90
2019-03-06T15:26:16.226Z,10.45
2019-03-06T15:28:48.220Z,14.30
2019-03-06T15:31:19.262Z,12.23
2019-03-06T15:33:49.802Z,12.95
2019-03-06T15:36:20.361Z,14.63
2019-03-06T15:38:51.084Z,13.68
2019-03-06T15:41:21.628Z,13.22
2019-03-06T15:43:53.940Z,22.45
2019-03-06T15:46:24.647Z,18.25
2019-03-06T15:48:55.205Z,17.45
2019-03-06T15:51:25.839Z,15.78
2019-03-06T15:53:56.388Z,13.30
2019-03-06T15:56:27.005Z,13.28
2019-03-06T15:58:57.584Z,16.93
2019-03-06T16:01:28.286Z,17.00
2019-03-06T16:04:00.986Z,15.23
2019-03-06T16:06:31.573Z,17.70
2019-03-06T16:09:02.256Z,14.55
2019-03-06T16:11:34.701Z,17.20
2019-03-06T16:14:05.456Z,17.55
2019-03-06T16:16:36.188Z,17.25
2019-03-06T16:19:06.871Z,15.80
2019-03-06T16:21:37.500Z,22.07
2019-03-06T16:24:09.816Z,23.38
2019-03-06T16:26:41.302Z,21.42
2019-03-06T16:29:12.811Z,26.07
2019-03-06T16:31:44.186Z,30.17
2019-03-06T16:34:15.962Z,35.75
2019-03-06T16:36:47.829Z,25.62
2019-03-06T16:39:18.833Z,33.88
2019-03-06T16:41:50.147Z,24.92
2019-03-06T16:44:21.524Z,18.70
2019-03-06T16:46:52.696Z,14.68
2019-03-06T16:49:24.321Z,16.27
2019-03-06T16:51:55.404Z,15.45
2019-03-06T16:54:26.585Z,16.65
2019-03-06T16:56:57.363Z,18.45
2019-03-06T16:59:27.877Z,19.55
2019-03-06T17:01:58.846Z,16.23
2019-03-06T17:04:30.002Z,19.80
2019-03-06T17:07:01.171Z,19.35
2019-03-06T17:09:32.339Z,21.55
2019-03-06T17:12:03.314Z,18.37
2019-03-06T17:14:34.244Z,14.80
2019-03-06T17:17:05.590Z,14.45
2019-03-06T17:19:36.483Z,13.83
2019-03-06T17:22:07.572Z,13.88
2019-03-06T17:24:38.137Z,12.53
2019-03-06T17:27:09.109Z,12.47
2019-03-06T17:29:39.996Z,11.97
2019-03-06T17:32:10.735Z,12.75
2019-03-06T17:34:42.592Z,14.40
2019-03-06T17:37:13.294Z,14.40
2019-03-06T17:39:43.740Z,16.00
2019-03-06T17:42:15.990Z,17.35
2019-03-06T17:44:46.755Z,18.10
2019-03-06T17:47:18.470Z,16.50
2019-03-06T17:49:49.377Z,17.73
2019-03-06T17:52:20.118Z,16.30
2019-03-06T17:54:52.761Z,30.25
2019-03-06T17:57:24.613Z,35.95
2019-03-06T18:00:02.027Z,19.40
2019-03-06T18:02:33.572Z,23.80
2019-03-06T18:05:05.786Z,24.50
2019-03-06T18:07:36.381Z,22.13
2019-03-06T18:10:10.172Z,36.68
2019-03-06T18:12:40.640Z,50.30
2019-03-06T18:15:13.734Z,39.88
2019-03-06T18:17:46.095Z,40.40
2019-03-06T18:20:18.671Z,36.83
2019-03-06T18:22:50.273Z,37.13
2019-03-06T18:25:22.622Z,31.02
2019-03-06T18:27:53.772Z,28.75
2019-03-06T18:30:25.208Z,27.67
2019-03-06T18:32:55.843Z,26.37
2019-03-06T18:35:26.385Z,21.07
2019-03-06T18:37:57.898Z,16.70
2019-03-06T18:40:28.913Z,39.60
2019-03-06T18:42:59.501Z,18.77
2019-03-06T18:45:30.519Z,16.20
2019-03-06T18:48:01.326Z,19.37
2019-03-06T18:50:31.805Z,17.42
2019-03-06T18:53:02.423Z,16.00
2019-03-06T18:55:32.806Z,19.30
2019-03-06T18:58:03.458Z,16.05
2019-03-06T19:00:33.962Z,19.73
2019-03-06T19:03:16.428Z,17.67
2019-03-06T19:05:50.635Z,15.97
2019-03-06T19:08:31.085Z,13.45
2019-03-06T19:10:58.098Z,17.45
2019-03-06T19:13:29.739Z,15.70
2019-03-06T19:16:08.773Z,16.75
2019-03-06T19:18:47.222Z,15.63
2019-03-06T19:21:29.143Z,14.73
2019-03-06T19:24:06.930Z,15.07
2019-03-06T19:26:41.854Z,15.53
2019-03-06T19:29:14.185Z,15.20
2019-03-06T19:31:44.795Z,19.30
2019-03-06T19:34:16.432Z,18.07
2019-03-06T19:36:46.977Z,16.77
2019-03-06T19:39:18.674Z,17.32
2019-03-06T19:41:50.154Z,17.40
2019-03-06T19:44:21.036Z,18.48
2019-03-06T19:46:52.419Z,19.17
2019-03-06T19:49:23.235Z,17.40
2019-03-06T19:51:54.197Z,14.30
2019-03-06T19:54:25.141Z,15.72
2019-03-06T19:56:55.913Z,14.93
2019-03-06T19:59:28.689Z,14.03
2019-03-06T20:02:00.840Z,16.05
2019-03-06T20:04:31.953Z,13.93
2019-03-06T20:07:09.023Z,17.00
2019-03-06T20:09:41.465Z,15.33
2019-03-06T20:12:12.651Z,14.27
2019-03-06T20:14:44.312Z,14.17
2019-03-06T20:17:15.451Z,13.43
2019-03-06T20:19:46.971Z,14.30
2019-03-06T20:22:18.551Z,14.70
2019-03-06T20:24:49.274Z,14.10
2019-03-06T20:27:19.988Z,15.67
2019-03-06T20:29:50.414Z,15.50
2019-03-06T20:32:21.493Z,15.50
2019-03-06T20:34:52.636Z,17.17
2019-03-06T20:37:23.603Z,15.33
2019-03-06T20:39:55.344Z,16.83
2019-03-06T20:42:26.426Z,16.93
2019-03-06T20:45:03.985Z,17.47
2019-03-06T20:47:41.657Z,17.47
2019-03-06T20:50:15.866Z,15.73
2019-03-06T20:52:59.043Z,20.10
2019-03-06T20:55:33.099Z,23.53
2019-03-06T20:58:06.025Z,21.47
2019-03-06T21:00:37.155Z,28.20
2019-03-06T21:03:09.695Z,35.10
2019-03-06T21:05:42.776Z,44.93
2019-03-06T21:08:16.138Z,41.70
2019-03-06T21:10:53.994Z,31.27
2019-03-06T21:13:30.349Z,26.87
2019-03-06T21:16:06.521Z,28.17
2019-03-06T21:18:39.572Z,22.33
2019-03-06T21:21:11.740Z,18.73
2019-03-06T21:23:42.571Z,18.03
2019-03-06T21:26:14.411Z,17.93
2019-03-06T21:28:45.259Z,22.70
2019-03-06T21:31:16.498Z,16.47
2019-03-06T21:33:48.732Z,14.90
2019-03-06T21:36:20.221Z,14.33
2019-03-06T21:39:03.328Z,13.87
2019-03-06T21:41:46.656Z,14.43
2019-03-06T21:44:26.251Z,13.97
2019-03-06T21:46:57.184Z,14.20
2019-03-06T21:49:34.684Z,13.20
2019-03-06T21:52:07.644Z,12.20
2019-03-06T21:54:43.070Z,12.00
2019-03-06T21:57:15.021Z,12.47
2019-03-06T21:59:46.355Z,13.07
2019-03-06T22:02:18.403Z,12.37
2019-03-06T22:04:49.329Z,12.37
2019-03-06T22:07:20.487Z,11.57
2019-03-06T22:09:51.598Z,12.13
2019-03-06T22:12:22.844Z,12.77
2019-03-06T22:14:53.648Z,12.40
2019-03-06T22:17:25.209Z,12.57
2019-03-06T22:19:56.809Z,12.07
2019-03-06T22:22:27.949Z,12.80
2019-03-06T22:24:59.154Z,11.70
2019-03-06T22:27:30.240Z,12.07
2019-03-06T22:30:01.286Z,12.13
2019-03-06T22:32:32.711Z,12.17
2019-03-06T22:35:03.986Z,11.80
2019-03-06T22:37:35.467Z,13.50
2019-03-06T22:40:09.768Z,11.93
2019-03-06T22:42:41.151Z,12.10
2019-03-06T22:45:15.099Z,13.40
2019-03-06T22:47:46.120Z,13.20
2019-03-06T22:50:19.409Z,13.20
2019-03-06T22:52:51.554Z,11.53
2019-03-06T22:55:23.236Z,13.10
2019-03-06T22:57:55.726Z,12.00
2019-03-06T23:00:28.056Z,12.50
2019-03-06T23:03:01.253Z,13.00
2019-03-06T23:05:35.177Z,11.83
2019-03-06T23:08:06.049Z,12.03
2019-03-06T23:10:37.517Z,11.77
2019-03-06T23:13:09.328Z,12.40
2019-03-06T23:15:40.383Z,12.37
2019-03-06T23:18:13.211Z,11.70
2019-03-06T23:20:44.505Z,12.03
2019-03-06T23:23:16.984Z,11.70
2019-03-06T23:25:48.427Z,11.83
2019-03-06T23:28:19.544Z,11.63
2019-03-06T23:30:54.383Z,10.90
2019-03-06T23:33:25.772Z,11.33
2019-03-06T23:35:56.754Z,10.63
2019-03-06T23:38:27.720Z,12.07
2019-03-06T23:40:58.828Z,11.77
2019-03-06T23:43:30.336Z,11.80
2019-03-06T23:46:01.871Z,12.30
2019-03-06T23:48:33.368Z,13.23
2019-03-06T23:51:06.289Z,12.30
2019-03-06T23:53:39.033Z,12.07
2019-03-06T23:56:10.376Z,11.27
2019-03-06T23:58:41.597Z,10.77
